x

La Mancha Beach, Mexico (lmbv4) Weather Station

3:00pm - Mon 11th Dec 2017 All times are CST. -6 hours from GMT.

  • Wind
    11mph, 16mph gusts
  • Air Temp 73°f
  • Sea Pressure 1023mb
  • La Mancha Beach, Mexico
  • La Mancha Beach, Mexico

More Historic Weather Station data

Upgrade to MSW Pro to gain access to the past 30 days of data for over 8000 Wavebouys and Weather Stations around the globe.

Join

Comparision Forecast

View Surf forecast
   
Mon 12/11 3:00pm 11 16 mph 1023mb 73f
2:00pm 13 17 mph 1023.2mb 75f
1:00pm 14 20 mph 1024.5mb 74f
12:00pm 10 15 mph 1025.7mb 74f
11:00am 15 20 mph 1026.9mb 74f
10:00am 6 13 mph 1027.4mb 76f
Sun 12/10 4:00pm 15
mph
- 72f
3:00pm 14 21 mph 1027.2mb 72f
2:00pm 20 26 mph 1027.2mb 73f
1:00pm 11 21 mph 1028.2mb 74f
12:00pm 13 18 mph 1029.5mb 73f
10:00am 5 8 mph 1030.5mb 77f
9:00am 7 10 mph 1030.7mb 73f
8:00am 6 7 mph 1030.3mb 67f
Sat 12/09 3:00pm 15 23 mph 1026mb 67f
2:00pm 18 25 mph 1026.2mb 67f
1:00pm 11 16 mph 1026.7mb 68f
12:00pm 11 17 mph 1027.9mb 69f
11:00am 11 16 mph 1028.8mb 66f
10:00am 9 15 mph 1029mb 67f
9:00am 2 3 mph 1029.1mb 67f
8:00am 2 3 mph 1028.3mb 64f